• Join FlightAware (Why Join?)
  • Login
  • US Flag 
04:02PM EDT


 

Airport Tracker/Info


-or-


 

Live Flight TrackerFlight Track Log ✈ RPA3228 ✈ 14-Sep-2013 ✈ KBNA - KDCA

Flight Track Log - Related Links

Times and Time Zones

All times are in EDT time to prevent confusion due to time zone crossing. See the RPA3228 flight status page for this flight to view local times or setup timezone preferences in your user account.

Time Position Orientation Groundspeed Altitude Reporting Facility
EDT Latitude Longitude Course Direction KTS MPH feet Rate Location/Type
07:41AM 36.1333 -86.6500 56° Northeast 147 169 1,800  Level Nashville TRACON
07:41AM 36.1333 -86.6500 56° Northeast 146 168 2,000 2,340 Climbing Nashville TRACON
07:42AM 36.1667 -86.6000 50° Northeast 209 241 4,400 2,460 Climbing Nashville TRACON
07:43AM 36.2554 -86.2847 64° Northeast  Level Estimated
07:43AM 36.1672 -86.4928 90° East 269 310 7,800  Level Memphis Center
07:44AM 36.2987 -86.1532 68° East  Level Estimated
07:44AM 36.1767 -86.3947 83° East 281 323 10,800  Level Memphis Center
07:45AM 36.3419 -86.0216 50° Northeast  Level Estimated
07:45AM 36.1836 -86.2914 85° East 294 338 13,500  Level Memphis Center
07:46AM 36.3850 -85.8898 56° Northeast  Level Estimated
07:46AM 36.1903 -86.1806 86° East 307 353 16,100  Level Memphis Center
07:47AM 36.2050 -86.0589 81° East 319 367 18,600 2,340 Climbing Memphis Center
07:48AM 36.2494 -85.9564 62° Northeast 319 367 20,800 2,100 Climbing Memphis Center
07:50AM 36.3142 -85.8142 61° Northeast 340 391 23,800 2,040 Climbing Indianapolis Center
07:51AM 36.3631 -85.7119 59° Northeast 343 395 25,900 1,860 Climbing Indianapolis Center
07:52AM 36.4119 -85.6067 60° Northeast 348 400 27,700 1,920 Climbing Indianapolis Center
07:53AM 36.4647 -85.4981 59° Northeast 361 415 29,900 2,160 Climbing Indianapolis Center
07:54AM 36.5156 -85.3911 59° Northeast 357 411 32,100 1,500 Climbing Indianapolis Center
07:55AM 36.5644 -85.2853 60° Northeast 352 405 33,000 420 Climbing Indianapolis Center
07:56AM 36.6128 -85.1803 60° Northeast 349 402 33,000  Level Indianapolis Center
07:57AM 36.6497 -85.0656 68° East 355 409 33,000  Level Indianapolis Center
07:58AM 36.6856 -84.9500 69° East 355 409 33,000  Level Indianapolis Center
07:59AM 36.7197 -84.8331 70° East 358 412 33,000  Level Indianapolis Center
08:00AM 36.7550 -84.7186 69° East 355 409 33,000  Level Indianapolis Center
08:01AM 36.7897 -84.6022 70° East 356 410 33,000  Level Indianapolis Center
08:02AM 36.8261 -84.4819 69° East 354 407 33,000  Level Indianapolis Center
08:03AM 36.8614 -84.3661 69° East 357 411 33,000  Level Indianapolis Center
08:04AM 36.8972 -84.2511 69° East 354 407 33,000  Level Indianapolis Center
08:05AM 36.9375 -84.1156 70° East 356 410 33,000  Level Indianapolis Center
08:06AM 36.9722 -83.9992 69° East 358 412 33,000  Level Indianapolis Center
08:07AM 37.0061 -83.8814 70° East 359 413 33,000  Level Indianapolis Center
08:08AM 37.0408 -83.7647 70° East 356 410 33,000  Level Indianapolis Center
08:09AM 37.0758 -83.6483 69° East 355 409 33,000  Level Indianapolis Center
08:10AM 37.1094 -83.5303 70° East 358 412 33,000  Level Indianapolis Center
08:11AM 37.1439 -83.4136 70° East 355 409 33,000  Level Indianapolis Center
08:12AM 37.1778 -83.2961 70° East 355 409 33,000  Level Indianapolis Center
08:13AM 37.2119 -83.1786 70° East 356 410 33,000  Level Indianapolis Center
08:14AM 37.2461 -83.0600 70° East 357 411 33,000  Level Indianapolis Center
08:15AM 37.2797 -82.9403 71° East 359 413 33,000  Level Indianapolis Center
08:16AM 37.3139 -82.8217 70° East 357 411 33,000  Level Indianapolis Center
08:17AM 37.3481 -82.7025 70° East 359 413 33,000  Level Indianapolis Center
08:18AM 37.3811 -82.5861 70° East 354 407 33,000  Level Indianapolis Center
08:19AM 37.4144 -82.4675 70° East 356 410 33,000  Level Indianapolis Center
08:20AM 37.4458 -82.3489 72° East 357 411 33,000  Level Indianapolis Center
08:21AM 37.4808 -82.2317 69° East 357 411 33,000  Level Indianapolis Center
08:22AM 37.5181 -82.0942 71° East 354 407 33,000  Level Indianapolis Center
08:23AM 37.5522 -81.9700 71° East 370 426 33,000  Level Indianapolis Center
08:24AM 37.5867 -81.8475 70° East 371 427 33,000  Level Indianapolis Center
08:25AM 37.6197 -81.7250 71° East 369 425 33,000  Level Indianapolis Center
08:26AM 37.6522 -81.6017 72° East 369 425 33,000  Level Indianapolis Center
08:27AM 37.6869 -81.4744 71° East 373 429 33,000  Level Indianapolis Center
08:28AM 37.7181 -81.3542 72° East 370 426 33,000  Level Indianapolis Center
08:29AM 37.7514 -81.2344 71° East 370 426 33,000  Level Indianapolis Center
08:30AM 37.7833 -81.1144 71° East 371 427 33,000  Level Indianapolis Center
08:31AM 37.8283 -80.9886 66° East 372 428 33,000  Level Indianapolis Center
08:32AM 37.8700 -80.8694 66° East 370 426 33,000  Level Indianapolis Center
08:33AM 37.9114 -80.7531 66° East 369 425 33,000  Level Indianapolis Center
08:34AM 37.9542 -80.6336 66° East 372 428 33,000  Level Indianapolis Center
08:35AM 37.9922 -80.5322 65° Northeast 366 421 33,000  Level Washington Center
08:36AM 38.0394 -80.3983 66° East 372 428 33,000  Level Washington Center
08:37AM 38.0817 -80.2769 66° East 372 428 33,000  Level Washington Center
08:38AM 38.1261 -80.1558 65° Northeast 372 428 33,000  Level Washington Center
08:39AM 38.1703 -80.0317 66° East 372 428 33,000  Level Washington Center
08:40AM 38.2122 -79.9100 66° East 372 428 33,000  Level Washington Center
08:41AM 38.2539 -79.7986 65° Northeast 377 434 33,000  Level Washington Center
08:42AM 38.2956 -79.6739 67° East 377 434 33,000  Level Washington Center
08:43AM 38.3394 -79.5492 66° East 377 434 33,000 -180 Level Washington Center
08:44AM 38.3831 -79.4272 65° Northeast 377 434 32,700 -1,380 Descending Washington Center
08:45AM 38.4272 -79.2811 69° East 383 441 30,300 -2,280 Descending Washington Center
08:46AM 38.4567 -79.1367 75° East 396 456 28,200 -1,320 Descending Washington Center
08:47AM 38.4819 -78.9867 78° East 414 476 27,800 -1,080 Descending Washington Center
08:48AM 38.5003 -78.8494 80° East 424 488 26,100 -1,920 Descending Washington Center
08:49AM 38.5250 -78.7019 78° East 430 495 23,900 -1,980 Descending Washington Center
08:50AM 38.5453 -78.5567 80° East 425 489 22,200 -1,380 Descending Washington Center
08:51AM 38.5697 -78.4144 78° East 415 478 21,200 -1,320 Descending Washington Center
08:52AM 38.5917 -78.2772 78° East 403 464 19,600 -1,800 Descending Washington Center
08:53AM 38.6300 -78.1456 70° East 397 457 17,800 -1,860 Descending Washington Center
08:54AM 38.6700 -78.0219 67° East 384 442 16,000 -1,740 Descending Washington Center
08:55AM 38.7056 -77.9089 68° East 371 427 14,300 -1,620 Descending Washington Center
08:56AM 38.7428 -77.8114 64° Northeast 332 382 12,800 -1,380 Descending Washington Center
08:57AM 38.7964 -77.7306 50° Northeast 303 349 11,600 -1,260 Descending Washington Center
08:58AM 38.8461 -77.6361 56° Northeast 290 334 10,300 -1,320 Descending Washington Center
08:59AM 38.8808 -77.5408 65° Northeast 285 328 9,100 -1,320 Descending Washington Center
09:01AM 38.8833 -77.4000 89° East 297 342 7,200 -1,260 Descending Potomac TRACON
09:02AM 38.8500 -77.3000 113° Southeast 277 319 6,000 -600 Descending Potomac TRACON
09:03AM 38.8167 -77.2333 123° Southeast 212 244 6,000  Level Potomac TRACON
09:04AM 38.7833 -77.1667 123° Southeast 211 243 6,000 -120 Level Potomac TRACON
09:05AM 38.7500 -77.1167 131° Southeast 219 252 5,800 -780 Descending Potomac TRACON
09:06AM 38.7000 -77.1167 180° South 206 237 4,500 -900 Descending Potomac TRACON
09:07AM 38.6333 -77.1000 169° South 205 236 4,000 -300 Descending Potomac TRACON
09:08AM 38.5833 -77.1000 180° South 208 239 4,000  Level Potomac TRACON
09:09AM 38.5333 -77.0833 165° South 216 249 4,000 -420 Level Potomac TRACON
09:10AM 38.5333 -77.0167 90° East 201 231 3,300 -540 Descending Potomac TRACON
09:11AM 38.5833 -77.0167 360° North 161 185 3,000 -180 Descending Potomac TRACON
09:12AM 38.6333 -77.0167 360° North 166 191 3,000  Level Potomac TRACON
09:12AM 38.6667 -77.0167 360° North 165 190 3,000 -300 Level Potomac TRACON
09:13AM 38.7167 -77.0167 360° North 159 183 2,500 -720 Descending Potomac TRACON
09:14AM 38.7667 -77.0333 345° North 160 184 1,600 -840 Descending Potomac TRACON
09:15AM 38.8000 -77.0333 360° North 125 144 900 -720 Descending Potomac TRACON